Time;durP1;ratioP1;P1;durP2;ratioP2;P2;SDS_P1;SDS_P2;PMS_P1;PMS_P2;Temp;Humidity;BMP_temperature;BMP_pressure;BME280_temperature;BME280_humidity;BME280_pressure;Samples;Min_cycle;Max_cycle;Signal;HPM_P1;HPM_P2
2023/08/16 00:02:09;;;;;;;13.23;11.32;;;;;;;-145.33;100.00;60416.63;4968994;28;20038;-26
2023/08/16 00:04:35;;;;;;;14.07;11.50;;;;;;;-145.33;100.00;60416.63;4969532;28;20050;-25
2023/08/16 00:07:00;;;;;;;14.07;11.02;;;;;;;-145.33;100.00;60416.63;4968957;28;20518;-24
2023/08/16 00:09:26;;;;;;;16.05;13.43;;;;;;;-145.33;100.00;60416.63;4969358;28;20034;-24
2023/08/16 00:11:51;;;;;;;19.27;14.75;;;;;;;-145.33;100.00;60416.63;4969029;28;20030;-23
2023/08/16 00:14:19;;;;;;;16.20;12.68;;;;;;;-145.33;100.00;60416.63;4969209;28;20030;-24
2023/08/16 00:16:44;;;;;;;13.40;11.43;;;;;;;-145.33;100.00;60416.63;4969155;28;20038;-26
2023/08/16 00:19:10;;;;;;;13.85;11.23;;;;;;;-145.33;100.00;60416.63;4969048;28;20039;-25
2023/08/16 00:21:35;;;;;;;13.65;11.57;;;;;;;-145.33;100.00;60416.63;4969096;28;20026;-24
2023/08/16 00:24:01;;;;;;;13.32;10.80;;;;;;;-145.33;100.00;60416.63;4968600;28;20035;-24
2023/08/16 00:26:26;;;;;;;13.35;10.80;;;;;;;-145.33;100.00;60416.63;4968880;28;20043;-24
2023/08/16 00:28:53;;;;;;;13.05;10.82;;;;;;;-145.33;100.00;60416.63;4968828;28;20023;-24
2023/08/16 00:31:19;;;;;;;11.52;10.32;;;;;;;-145.33;100.00;60416.63;4969125;28;20030;-24
2023/08/16 00:33:44;;;;;;;13.68;10.32;;;;;;;-145.33;100.00;60416.63;4967341;28;20050;-25
2023/08/16 00:36:09;;;;;;;12.52;10.55;;;;;;;-145.33;100.00;60416.63;4968895;28;20022;-26
2023/08/16 00:38:35;;;;;;;14.48;10.50;;;;;;;-145.33;100.00;60416.63;4968550;28;20502;-24
2023/08/16 00:41:00;;;;;;;13.48;10.38;;;;;;;-145.33;100.00;60416.63;4969158;28;20050;-24
2023/08/16 00:43:26;;;;;;;13.73;10.70;;;;;;;-145.33;100.00;60416.63;4968633;28;20035;-24
2023/08/16 00:45:52;;;;;;;13.48;10.60;;;;;;;-145.33;100.00;60416.63;4968308;28;20030;-23
2023/08/16 00:48:18;;;;;;;12.32;11.02;;;;;;;-145.33;100.00;60416.63;4968504;28;20391;-24
2023/08/16 00:50:45;;;;;;;14.55;11.68;;;;;;;-145.33;100.00;60416.63;4968173;28;20129;-26
2023/08/16 00:53:13;;;;;;;13.77;11.20;;;;;;;-145.33;100.00;60416.63;4968658;28;20093;-24
2023/08/16 00:55:42;;;;;;;14.68;11.07;;;;;;;-145.33;100.00;60416.63;4968189;28;20985;-24
2023/08/16 00:58:07;;;;;;;14.43;11.35;;;;;;;-145.33;100.00;60416.63;4968196;28;20474;-29
2023/08/16 01:00:34;;;;;;;15.70;11.23;;;;;;;-145.33;100.00;60416.63;4968640;28;20057;-24
2023/08/16 01:02:59;;;;;;;12.95;11.43;;;;;;;-145.33;100.00;60416.63;4968211;28;20038;-23
2023/08/16 01:05:25;;;;;;;16.70;11.43;;;;;;;-145.33;100.00;60416.63;4967766;28;20041;-23
2023/08/16 01:07:51;;;;;;;14.20;11.40;;;;;;;-145.33;100.00;60416.63;4968006;28;20043;-25
2023/08/16 01:10:17;;;;;;;13.63;11.05;;;;;;;-145.33;100.00;60416.63;4967917;28;20430;-24
2023/08/16 01:13:10;;;;;;;14.38;11.30;;;;;;;-145.33;100.00;60416.63;4967935;28;20102;-24
2023/08/16 01:15:41;;;;;;;13.13;10.52;;;;;;;-145.33;100.00;60416.63;4967885;28;20023;-26
2023/08/16 01:18:08;;;;;;;13.73;10.98;;;;;;;-145.33;100.00;60416.63;4967960;28;20038;-23
2023/08/16 01:20:35;;;;;;;13.00;10.90;;;;;;;-145.33;100.00;60416.63;4968043;28;20038;-27
2023/08/16 01:23:06;;;;;;;13.93;10.43;;;;;;;-145.33;100.00;60416.63;4967803;28;20576;-23
2023/08/16 01:25:47;;;;;;;15.20;11.52;;;;;;;-145.33;100.00;60416.63;4968113;28;20030;-24
2023/08/16 01:28:14;;;;;;;17.08;11.63;;;;;;;-145.33;100.00;60416.63;4967292;28;20041;-25
2023/08/16 01:30:40;;;;;;;14.52;11.32;;;;;;;-145.33;100.00;60416.63;4968030;28;20027;-26
2023/08/16 01:33:07;;;;;;;19.90;11.50;;;;;;;-145.33;100.00;60416.63;4967979;28;20030;-25
2023/08/16 01:35:33;;;;;;;13.70;11.70;;;;;;;-145.33;100.00;60416.63;4967700;28;20411;-23
2023/08/16 01:37:58;;;;;;;18.05;11.10;;;;;;;-145.33;100.00;60416.63;4967787;28;20045;-24
2023/08/16 01:40:30;;;;;;;13.00;11.50;;;;;;;-145.33;100.00;60416.63;4967249;28;20025;-24
2023/08/16 01:42:57;;;;;;;12.48;10.75;;;;;;;-145.33;100.00;60416.63;4967960;28;20078;-24
2023/08/16 01:45:23;;;;;;;15.25;11.50;;;;;;;-145.33;100.00;60416.63;4967493;28;20027;-25
2023/08/16 01:47:52;;;;;;;17.15;11.63;;;;;;;-145.33;100.00;60416.63;4967247;28;20407;-23
2023/08/16 01:50:17;;;;;;;12.82;11.43;;;;;;;-145.33;100.00;60416.63;4967689;28;20062;-24
2023/08/16 01:52:43;;;;;;;13.77;11.48;;;;;;;-145.33;100.00;60416.63;4966951;28;20058;-24
2023/08/16 01:55:08;;;;;;;16.38;11.13;;;;;;;-145.33;100.00;60416.63;4967973;28;20066;-25
2023/08/16 01:57:34;;;;;;;15.85;11.40;;;;;;;-145.33;100.00;60416.63;4967493;28;20033;-24
2023/08/16 02:00:01;;;;;;;14.55;11.82;;;;;;;-145.33;100.00;60416.63;4967074;28;20130;-25
2023/08/16 02:02:27;;;;;;;;;;;;;;;-145.33;100.00;60416.63;4967887;28;20038;-24
2023/08/16 02:04:52;;;;;;;14.20;10.80;;;;;;;-145.33;100.00;60416.63;4966791;28;19909;-24
2023/08/16 02:07:20;;;;;;;16.00;11.27;;;;;;;-145.33;100.00;60416.63;4967072;28;20671;-23
2023/08/16 02:09:45;;;;;;;;;;;;;;;-145.33;100.00;60416.63;4967567;28;20058;-23
2023/08/16 02:12:13;;;;;;;15.90;12.23;;;;;;;-145.33;100.00;60416.63;4966976;28;19918;-24
2023/08/16 02:14:38;;;;;;;17.42;12.75;;;;;;;-145.33;100.00;60416.63;4967487;28;20279;-24
2023/08/16 02:17:04;;;;;;;15.75;12.50;;;;;;;-145.33;100.00;60416.63;4966595;28;20037;-23
2023/08/16 02:19:29;;;;;;;15.93;12.63;;;;;;;-145.33;100.00;60416.63;4967011;28;20905;-27
2023/08/16 02:21:55;;;;;;;18.73;12.82;;;;;;;-145.33;100.00;60416.63;4966624;28;20019;-25
2023/08/16 02:24:20;;;;;;;15.23;13.13;;;;;;;-145.33;100.00;60416.63;4966931;28;20034;-24
2023/08/16 02:26:45;;;;;;;24.40;16.95;;;;;;;-145.33;100.00;60416.63;4966808;28;20030;-24
2023/08/16 02:29:11;;;;;;;29.00;18.83;;;;;;;-145.33;100.00;60416.63;4966825;28;20031;-25
2023/08/16 02:31:39;;;;;;;31.77;18.75;;;;;;;-145.33;100.00;60416.63;4966772;28;20027;-24
2023/08/16 02:34:04;;;;;;;;;;;;;;;-145.33;100.00;60416.63;4967330;28;20041;-24
2023/08/16 02:36:29;;;;;;;24.83;15.60;;;;;;;-145.33;100.00;60416.63;4966258;28;20267;-24
2023/08/16 02:38:55;;;;;;;18.00;13.82;;;;;;;-145.33;100.00;60416.63;4966859;28;20270;-24
2023/08/16 02:41:21;;;;;;;18.42;14.30;;;;;;;-145.33;100.00;60416.63;4966667;28;20062;-23
2023/08/16 02:43:46;;;;;;;15.40;12.65;;;;;;;-145.33;100.00;60416.63;4966546;28;20118;-24
2023/08/16 02:46:11;;;;;;;15.27;12.52;;;;;;;-145.33;100.00;60416.63;4967084;28;20070;-27
2023/08/16 02:48:37;;;;;;;16.98;12.43;;;;;;;-145.33;100.00;60416.63;4966525;28;20035;-25
2023/08/16 02:51:04;;;;;;;14.48;12.63;;;;;;;-145.33;100.00;60416.63;4966870;28;20062;-24
2023/08/16 02:53:30;;;;;;;14.85;12.57;;;;;;;-145.33;100.00;60416.63;4966486;28;20858;-24
2023/08/16 02:55:55;;;;;;;14.30;11.68;;;;;;;-145.33;100.00;60416.63;4967591;28;20027;-23
2023/08/16 02:58:23;;;;;;;14.07;12.15;;;;;;;-145.33;100.00;60416.63;4970351;28;20027;-24
2023/08/16 03:00:57;;;;;;;15.50;12.55;;;;;;;-145.33;100.00;60416.63;4970457;28;20517;-23
2023/08/16 03:03:22;;;;;;;16.67;12.10;;;;;;;-145.33;100.00;60416.63;4970786;28;20119;-24
2023/08/16 03:05:48;;;;;;;15.73;12.10;;;;;;;-145.33;100.00;60416.63;4970381;28;20117;-24
2023/08/16 03:08:13;;;;;;;15.95;12.40;;;;;;;-145.33;100.00;60416.63;4970095;28;20051;-26
2023/08/16 03:10:39;;;;;;;17.23;12.90;;;;;;;-145.33;100.00;60416.63;4970511;28;20474;-25
2023/08/16 03:13:04;;;;;;;15.52;12.20;;;;;;;-145.33;100.00;60416.63;4969945;28;20060;-25
2023/08/16 03:15:29;;;;;;;14.65;12.43;;;;;;;-145.33;100.00;60416.63;4970599;28;20034;-25
2023/08/16 03:17:55;;;;;;;18.38;11.95;;;;;;;-145.33;100.00;60416.63;4970378;28;20038;-27
2023/08/16 03:20:20;;;;;;;18.42;12.32;;;;;;;-145.33;100.00;60416.63;4969951;28;20394;-23
2023/08/16 03:22:46;;;;;;;16.17;11.65;;;;;;;-145.33;100.00;60416.63;4969927;28;20729;-24
2023/08/16 03:25:11;;;;;;;19.27;12.02;;;;;;;-145.33;100.00;60416.63;4969731;28;20023;-27
2023/08/16 03:27:37;;;;;;;15.93;13.10;;;;;;;-145.33;100.00;60416.63;4970454;28;20057;-24
2023/08/16 03:30:03;;;;;;;17.23;13.38;;;;;;;-145.33;100.00;60416.63;4970064;28;20415;-24
2023/08/16 03:32:28;;;;;;;18.45;12.57;;;;;;;-145.33;100.00;60416.63;4969748;28;20029;-24
2023/08/16 03:34:54;;;;;;;16.27;11.52;;;;;;;-145.33;100.00;60416.63;4969880;28;20022;-24
2023/08/16 03:37:19;;;;;;;19.35;12.13;;;;;;;-145.33;100.00;60416.63;4969324;28;20117;-24
2023/08/16 03:39:44;;;;;;;18.08;11.98;;;;;;;-145.33;100.00;60416.63;4970075;28;20686;-23
2023/08/16 03:42:10;;;;;;;20.35;12.77;;;;;;;-145.33;100.00;60416.63;4969974;28;20039;-25
2023/08/16 03:44:35;;;;;;;16.60;12.30;;;;;;;-145.33;100.00;60416.63;4969644;28;20038;-24
2023/08/16 03:47:01;;;;;;;18.88;13.10;;;;;;;-145.33;100.00;60416.63;4969877;28;20091;-24
2023/08/16 03:49:26;;;;;;;18.35;13.27;;;;;;;-145.33;100.00;60416.63;4969283;28;20027;-24
2023/08/16 03:51:52;;;;;;;15.27;11.88;;;;;;;-145.33;100.00;60416.63;4969812;28;20030;-27
2023/08/16 03:54:17;;;;;;;19.45;12.80;;;;;;;-145.33;100.00;60416.63;4969538;28;20113;-24
2023/08/16 03:56:42;;;;;;;23.45;12.63;;;;;;;-145.33;100.00;60416.63;4969407;28;20031;-26
2023/08/16 03:59:08;;;;;;;17.65;12.07;;;;;;;-145.33;100.00;60416.63;4969604;28;20399;-24
2023/08/16 04:01:37;;;;;;;14.88;12.10;;;;;;;-145.33;100.00;60416.63;4969734;28;20035;-24
2023/08/16 04:04:03;;;;;;;17.65;12.05;;;;;;;-145.33;100.00;60416.63;4969097;28;20057;-23
2023/08/16 04:06:28;;;;;;;14.32;11.90;;;;;;;-145.33;100.00;60416.63;4968639;28;20438;-23
2023/08/16 04:08:54;;;;;;;14.90;11.68;;;;;;;-145.33;100.00;60416.63;4969397;28;20030;-24
2023/08/16 04:11:19;;;;;;;14.52;12.35;;;;;;;-145.33;100.00;60416.63;4969476;28;20417;-25
2023/08/16 04:13:45;;;;;;;13.70;11.45;;;;;;;-145.33;100.00;60416.63;4969333;28;20023;-24
2023/08/16 04:16:12;;;;;;;17.75;11.85;;;;;;;-145.33;100.00;60416.63;4968712;28;20034;-24
2023/08/16 04:18:38;;;;;;;20.30;13.02;;;;;;;-145.33;100.00;60416.63;4969246;28;20082;-24
2023/08/16 04:21:05;;;;;;;16.52;13.20;;;;;;;-145.33;100.00;60416.63;4968909;28;20066;-24
2023/08/16 04:23:33;;;;;;;17.70;12.60;;;;;;;-145.33;100.00;60416.63;4969215;28;20042;-25
2023/08/16 04:25:59;;;;;;;17.13;12.80;;;;;;;-145.33;100.00;60416.63;4968902;28;20031;-24
2023/08/16 04:28:26;;;;;;;16.73;13.52;;;;;;;-145.33;100.00;60416.63;4968760;28;20046;-24
2023/08/16 04:30:52;;;;;;;16.80;12.65;;;;;;;-145.33;100.00;60416.63;4969003;28;20039;-24
2023/08/16 04:33:17;;;;;;;18.35;12.82;;;;;;;-145.33;100.00;60416.63;4968667;28;20041;-23
2023/08/16 04:35:43;;;;;;;13.93;12.18;;;;;;;-145.33;100.00;60416.63;4968969;28;20031;-26
2023/08/16 04:38:09;;;;;;;17.45;13.50;;;;;;;-145.33;100.00;60416.63;4968653;28;20042;-23
2023/08/16 04:40:35;;;;;;;20.00;13.07;;;;;;;-145.33;100.00;60416.63;4968506;28;20085;-25
2023/08/16 04:43:03;;;;;;;17.85;13.60;;;;;;;-145.33;100.00;60416.63;4968703;28;20030;-25
2023/08/16 04:45:29;;;;;;;21.67;14.57;;;;;;;-145.33;100.00;60416.63;4968531;28;20077;-24
2023/08/16 04:47:56;;;;;;;16.90;13.60;;;;;;;-145.33;100.00;60416.63;4968490;28;20042;-24
2023/08/16 04:50:22;;;;;;;16.45;13.75;;;;;;;-145.33;100.00;60416.63;4968727;28;20031;-24
2023/08/16 04:52:47;;;;;;;16.67;13.90;;;;;;;-145.33;100.00;60416.63;4968418;28;20446;-25
2023/08/16 04:55:18;;;;;;;22.25;13.63;;;;;;;-145.33;100.00;60416.63;4968773;28;20065;-30
2023/08/16 04:57:43;;;;;;;16.77;13.50;;;;;;;-145.33;100.00;60416.63;4968147;28;20038;-25
2023/08/16 05:00:09;;;;;;;18.67;13.63;;;;;;;-145.33;100.00;60416.63;4968619;28;20038;-24
2023/08/16 05:02:35;;;;;;;19.75;13.15;;;;;;;-145.33;100.00;60416.63;4967996;28;20018;-24
2023/08/16 05:05:00;;;;;;;16.23;13.35;;;;;;;-145.33;100.00;60416.63;4968033;28;20023;-24
2023/08/16 05:07:26;;;;;;;18.70;13.43;;;;;;;-145.33;100.00;60416.63;4968173;28;20042;-23
2023/08/16 05:09:51;;;;;;;14.95;12.85;;;;;;;-145.33;100.00;60416.63;4968165;28;20045;-26
2023/08/16 05:12:17;;;;;;;15.88;13.38;;;;;;;-145.33;100.00;60416.63;4968280;28;20042;-24
2023/08/16 05:14:42;;;;;;;17.10;13.15;;;;;;;-145.33;100.00;60416.63;4967729;28;20027;-24
2023/08/16 05:17:08;;;;;;;19.10;13.48;;;;;;;-145.33;100.00;60416.63;4967879;28;20031;-24
2023/08/16 05:19:34;;;;;;;16.08;12.57;;;;;;;-145.33;100.00;60416.63;4967244;28;20127;-24
2023/08/16 05:22:00;;;;;;;15.60;13.32;;;;;;;-145.33;100.00;60416.63;4967921;28;20062;-24
2023/08/16 05:24:25;;;;;;;16.80;12.98;;;;;;;-145.33;100.00;60416.63;4967696;28;20429;-24
2023/08/16 05:26:50;;;;;;;15.07;12.32;;;;;;;-145.33;100.00;60416.63;4968078;28;20035;-23
2023/08/16 05:29:16;;;;;;;17.42;13.52;;;;;;;-145.33;100.00;60416.63;4967881;28;20069;-23
2023/08/16 05:31:41;;;;;;;16.30;12.38;;;;;;;-145.33;100.00;60416.63;4968085;28;20923;-24
2023/08/16 05:34:07;;;;;;;16.00;12.43;;;;;;;-145.33;100.00;60416.63;4967817;28;20816;-24
2023/08/16 05:36:33;;;;;;;17.35;13.13;;;;;;;-145.33;100.00;60416.63;4967320;28;20031;-24
2023/08/16 05:38:58;;;;;;;16.13;12.85;;;;;;;-145.33;100.00;60416.63;4967940;28;20030;-24
2023/08/16 05:41:24;;;;;;;17.63;12.63;;;;;;;-145.33;100.00;60416.63;4967329;28;20027;-23
2023/08/16 05:43:49;;;;;;;16.85;13.15;;;;;;;-145.33;100.00;60416.63;4967734;28;20030;-24
2023/08/16 05:46:16;;;;;;;16.33;12.95;;;;;;;-145.33;100.00;60416.63;4967484;28;20039;-28
2023/08/16 05:48:41;;;;;;;16.33;12.80;;;;;;;-145.33;100.00;60416.63;4967443;28;20046;-25
2023/08/16 05:51:07;;;;;;;14.52;12.02;;;;;;;-145.33;100.00;60416.63;4967500;28;20035;-27
2023/08/16 05:53:32;;;;;;;16.25;12.13;;;;;;;-145.33;100.00;60416.63;4967247;28;20089;-24
2023/08/16 05:55:58;;;;;;;13.55;11.60;;;;;;;-145.33;100.00;60416.63;4967526;28;20592;-24
2023/08/16 05:58:23;;;;;;;17.67;12.15;;;;;;;-145.33;100.00;60416.63;4966786;28;20053;-28
2023/08/16 06:00:52;;;;;;;13.40;12.00;;;;;;;-145.33;100.00;60416.63;4967250;28;20049;-24
2023/08/16 06:03:17;;;;;;;14.80;12.98;;;;;;;-145.33;100.00;60416.63;4967179;28;20082;-24
2023/08/16 06:05:43;;;;;;;17.15;12.07;;;;;;;-145.33;100.00;60416.63;4966901;28;20031;-24
2023/08/16 06:08:08;;;;;;;13.45;11.90;;;;;;;-145.33;100.00;60416.63;4966639;28;20580;-24
2023/08/16 06:10:34;;;;;;;14.77;11.98;;;;;;;-145.33;100.00;60416.63;4967165;28;20062;-24
2023/08/16 06:12:59;;;;;;;28.55;13.30;;;;;;;-145.33;100.00;60416.63;4967040;28;20720;-23
2023/08/16 06:15:25;;;;;;;14.27;11.52;;;;;;;-145.33;100.00;60416.63;4967140;28;20031;-24
2023/08/16 06:17:50;;;;;;;16.52;12.48;;;;;;;-145.33;100.00;60416.63;4966659;28;20046;-24
2023/08/16 06:20:19;;;;;;;18.67;12.00;;;;;;;-145.33;100.00;60416.63;4966930;28;20039;-28
2023/08/16 06:22:46;;;;;;;14.57;12.45;;;;;;;-145.33;100.00;60416.63;4967219;28;20212;-24
2023/08/16 06:25:12;;;;;;;;;;;;;;;-145.33;100.00;60416.63;4967517;28;20508;-24
2023/08/16 06:27:37;;;;;;;13.00;10.93;;;;;;;-145.33;100.00;60416.63;4966992;28;20551;-24
2023/08/16 06:30:03;;;;;;;15.45;11.68;;;;;;;-145.33;100.00;60416.63;4966215;28;20285;-24
2023/08/16 06:32:28;;;;;;;12.30;10.75;;;;;;;-145.33;100.00;60416.63;4966571;28;20105;-23
2023/08/16 06:34:54;;;;;;;17.25;10.02;;;;;;;-145.33;100.00;60416.63;4966864;28;20033;-23
2023/08/16 06:37:21;;;;;;;12.95;10.75;;;;;;;-145.33;100.00;60416.63;4966706;28;20030;-26
2023/08/16 06:39:46;;;;;;;12.63;10.67;;;;;;;-145.33;100.00;60416.63;4967542;28;20027;-28
2023/08/16 06:42:14;;;;;;;14.38;11.18;;;;;;;-145.33;100.00;60416.63;4966731;28;20027;-26
2023/08/16 06:44:40;;;;;;;14.93;10.88;;;;;;;-145.33;100.00;60416.63;4966586;28;20031;-25
2023/08/16 06:47:05;;;;;;;13.98;10.40;;;;;;;-145.33;100.00;60416.63;4966997;28;20025;-25
2023/08/16 06:49:31;;;;;;;14.90;10.82;;;;;;;-145.33;100.00;60416.63;4966779;28;20027;-23
2023/08/16 06:51:56;;;;;;;12.52;10.20;;;;;;;-145.33;100.00;60416.63;4967188;28;20039;-24
2023/08/16 06:54:22;;;;;;;14.25;11.23;;;;;;;-145.33;100.00;60416.63;4966407;28;20034;-25
2023/08/16 06:56:49;;;;;;;16.95;10.90;;;;;;;-145.33;100.00;60416.63;4966522;28;20027;-25
2023/08/16 06:59:15;;;;;;;14.07;10.80;;;;;;;-145.33;100.00;60416.63;4967134;28;20073;-24
2023/08/16 07:01:40;;;;;;;11.48;10.25;;;;;;;-145.33;100.00;60416.63;4966700;28;20062;-23
2023/08/16 07:04:05;;;;;;;15.55;11.27;;;;;;;-145.33;100.00;60416.63;4966345;28;20149;-24
2023/08/16 07:06:31;;;;;;;14.85;10.93;;;;;;;-145.33;100.00;60416.63;4965836;28;20047;-26
2023/08/16 07:08:58;;;;;;;14.10;10.18;;;;;;;-145.33;100.00;60416.63;4965915;28;20027;-24
2023/08/16 07:11:24;;;;;;;17.93;10.97;;;;;;;-145.33;100.00;60416.63;4966304;28;20035;-23
2023/08/16 07:13:50;;;;;;;13.73;10.90;;;;;;;-145.33;100.00;60416.63;4966389;28;20118;-23
2023/08/16 07:16:17;;;;;;;15.88;10.38;;;;;;;-145.33;100.00;60416.63;4966232;28;20484;-29
2023/08/16 07:18:42;;;;;;;13.80;10.40;;;;;;;-145.33;100.00;60416.63;4966661;28;20034;-26
2023/08/16 07:21:08;;;;;;;11.93;10.40;;;;;;;-145.33;100.00;60416.63;4966487;28;20058;-24
2023/08/16 07:23:34;;;;;;;15.57;10.32;;;;;;;-145.33;100.00;60416.63;4966643;28;20458;-23
2023/08/16 07:25:59;;;;;;;14.05;11.02;;;;;;;-145.33;100.00;60416.63;4965868;28;20063;-24
2023/08/16 07:28:25;;;;;;;12.48;10.40;;;;;;;-145.33;100.00;60416.63;4966550;28;20027;-24
2023/08/16 07:30:55;;;;;;;15.38;10.70;;;;;;;-145.33;100.00;60416.63;4966451;28;20027;-26
2023/08/16 07:33:23;;;;;;;16.55;11.18;;;;;;;-145.33;100.00;60416.63;4965928;28;20035;-23
2023/08/16 07:35:49;;;;;;;13.52;10.18;;;;;;;-145.33;100.00;60416.63;4966145;28;20466;-26
2023/08/16 07:38:15;;;;;;;15.70;11.30;;;;;;;-145.33;100.00;60416.63;4965988;28;20057;-24
2023/08/16 07:40:46;;;;;;;16.60;11.30;;;;;;;-145.33;100.00;60416.63;4966520;28;20058;-23
2023/08/16 07:43:14;;;;;;;13.32;10.27;;;;;;;-145.33;100.00;60416.63;4969148;28;20034;-24
2023/08/16 07:45:39;;;;;;;;;;;;;;;-145.33;100.00;60416.63;4969964;28;20041;-23
2023/08/16 07:48:05;;;;;;;16.10;10.17;;;;;;;-145.33;100.00;60416.63;4969732;28;19918;-24
2023/08/16 07:50:31;;;;;;;17.08;11.65;;;;;;;-145.33;100.00;60416.63;4969299;28;20702;-24
2023/08/16 07:52:56;;;;;;;15.68;10.70;;;;;;;-145.33;100.00;60416.63;4969775;28;20021;-24
2023/08/16 07:55:23;;;;;;;17.67;11.25;;;;;;;-145.33;100.00;60416.63;4969288;28;20618;-24
2023/08/16 07:57:49;;;;;;;14.47;11.60;;;;;;;-145.33;100.00;60416.63;4969485;28;20518;-24
2023/08/16 08:00:15;;;;;;;13.10;10.07;;;;;;;-145.33;100.00;60416.63;4969555;28;20031;-23
2023/08/16 08:02:40;;;;;;;16.08;10.02;;;;;;;-145.33;100.00;60416.63;4969329;28;20050;-24
2023/08/16 08:05:07;;;;;;;17.30;11.13;;;;;;;-145.33;100.00;60416.63;4969366;28;20105;-24
2023/08/16 08:07:32;;;;;;;13.68;9.38;;;;;;;-145.33;100.00;60416.63;4969067;28;20049;-25
2023/08/16 08:09:58;;;;;;;16.67;11.25;;;;;;;-145.33;100.00;60416.63;4969201;28;20035;-25
2023/08/16 08:12:24;;;;;;;17.60;11.98;;;;;;;-145.33;100.00;60416.63;4969128;28;20034;-23
2023/08/16 08:14:49;;;;;;;15.25;11.70;;;;;;;-145.33;100.00;60416.63;4969070;28;20093;-25
2023/08/16 08:17:15;;;;;;;17.67;10.02;;;;;;;-145.33;100.00;60416.63;4969004;28;20027;-24
2023/08/16 08:19:41;;;;;;;18.13;8.95;;;;;;;-145.33;100.00;60416.63;4969287;28;20034;-24
2023/08/16 08:22:09;;;;;;;18.13;11.55;;;;;;;-145.33;100.00;60416.63;4968860;28;20101;-24
2023/08/16 08:24:37;;;;;;;12.20;9.02;;;;;;;-145.33;100.00;60416.63;4969142;28;20045;-25
2023/08/16 08:27:04;;;;;;;15.70;8.65;;;;;;;-145.33;100.00;60416.63;4968923;28;20489;-26
2023/08/16 08:29:29;;;;;;;12.90;8.82;;;;;;;-145.33;100.00;60416.63;4968889;28;20038;-25
2023/08/16 08:31:55;;;;;;;13.85;8.43;;;;;;;-145.33;100.00;60416.63;4968749;28;20454;-24
2023/08/16 08:34:21;;;;;;;15.35;9.15;;;;;;;-145.33;100.00;60416.63;4968613;28;20073;-24
2023/08/16 08:36:47;;;;;;;12.30;6.77;;;;;;;-145.33;100.00;60416.63;4968751;28;20027;-29
2023/08/16 08:39:15;;;;;;;10.10;6.60;;;;;;;-145.33;100.00;60416.63;4968737;28;20089;-23
2023/08/16 08:41:43;;;;;;;11.45;6.88;;;;;;;-145.33;100.00;60416.63;4968675;28;20023;-23
2023/08/16 08:44:09;;;;;;;15.25;7.78;;;;;;;-145.33;100.00;60416.63;4968648;28;20030;-23
2023/08/16 08:46:35;;;;;;;11.05;6.60;;;;;;;-145.33;100.00;60416.63;4968048;28;20023;-26
2023/08/16 08:49:01;;;;;;;9.35;6.72;;;;;;;-145.33;100.00;60416.63;4968645;28;20034;-24
2023/08/16 08:51:30;;;;;;;10.10;6.88;;;;;;;-145.33;100.00;60416.63;4968225;28;20026;-24
2023/08/16 08:53:56;;;;;;;11.70;7.45;;;;;;;-145.33;100.00;60416.63;4967396;28;20492;-24
2023/08/16 08:56:22;;;;;;;13.73;7.50;;;;;;;-145.33;100.00;60416.63;4968705;28;20106;-25
2023/08/16 08:58:50;;;;;;;12.60;8.25;;;;;;;-145.33;100.00;60416.63;4967789;28;20034;-27
2023/08/16 09:01:17;;;;;;;10.40;7.25;;;;;;;-145.33;100.00;60416.63;4968606;28;20113;-31
2023/08/16 09:03:45;;;;;;;12.65;8.30;;;;;;;-145.33;100.00;60416.63;4967960;28;20037;-24
2023/08/16 09:06:12;;;;;;;11.57;7.93;;;;;;;-145.33;100.00;60416.63;4967693;28;20050;-24
2023/08/16 09:08:37;;;;;;;11.20;7.73;;;;;;;-145.33;100.00;60416.63;4968138;28;20081;-24
2023/08/16 09:11:03;;;;;;;10.15;7.18;;;;;;;-145.33;100.00;60416.63;4968037;28;20471;-26
2023/08/16 09:13:32;;;;;;;11.23;7.18;;;;;;;-145.33;100.00;60416.63;4968037;28;20081;-27
2023/08/16 09:16:01;;;;;;;10.85;6.53;;;;;;;-145.33;100.00;60416.63;4968050;28;20023;-24
2023/08/16 09:18:35;;;;;;;11.68;7.03;;;;;;;-145.33;100.00;60416.63;4967563;28;20063;-23
2023/08/16 09:21:00;;;;;;;10.10;7.03;;;;;;;-145.33;100.00;60416.63;4968093;28;20025;-25
2023/08/16 09:23:28;;;;;;;11.27;7.65;;;;;;;-145.33;100.00;60416.63;4967851;28;20034;-23
2023/08/16 09:25:54;;;;;;;12.00;7.88;;;;;;;-145.33;100.00;60416.63;4967839;28;20576;-23
2023/08/16 09:28:20;;;;;;;12.80;7.75;;;;;;;-145.33;100.00;60416.63;4967890;28;20063;-27
2023/08/16 09:30:46;;;;;;;15.20;7.47;;;;;;;-145.33;100.00;60416.63;4967731;28;20082;-23
2023/08/16 09:33:22;;;;;;;9.65;7.43;;;;;;;-145.33;100.00;60416.63;4968097;28;20026;-26
2023/08/16 09:35:49;;;;;;;13.65;7.03;;;;;;;-145.33;100.00;60416.63;4967442;28;20045;-24
2023/08/16 09:38:18;;;;;;;9.73;7.10;;;;;;;-145.33;100.00;60416.63;4967957;28;20554;-23
2023/08/16 09:40:50;;;;;;;12.10;7.32;;;;;;;-145.33;100.00;60416.63;4967945;28;20084;-23
2023/08/16 09:43:19;;;;;;;10.13;6.55;;;;;;;-145.33;100.00;60416.63;4967624;28;20570;-28
2023/08/16 09:45:51;;;;;;;11.65;7.72;;;;;;;-145.33;100.00;60416.63;4967523;28;20061;-24
2023/08/16 09:48:19;;;;;;;11.60;7.00;;;;;;;-145.33;100.00;60416.63;4967311;28;20655;-24
2023/08/16 09:50:45;;;;;;;12.02;7.35;;;;;;;-145.33;100.00;60416.63;4967888;28;20046;-23
2023/08/16 09:53:12;;;;;;;12.68;7.25;;;;;;;-145.33;100.00;60416.63;4967667;28;20038;-23
2023/08/16 09:55:40;;;;;;;11.38;7.20;;;;;;;-145.33;100.00;60416.63;4967668;28;20031;-23
2023/08/16 09:58:07;;;;;;;11.13;7.30;;;;;;;-145.33;100.00;60416.63;4967063;28;20031;-23
2023/08/16 10:00:34;;;;;;;11.18;7.63;;;;;;;-145.33;100.00;60416.63;4966998;28;20038;-23
2023/08/16 10:03:00;;;;;;;11.05;7.07;;;;;;;-145.33;100.00;60416.63;4967197;28;20133;-24
2023/08/16 10:05:26;;;;;;;9.13;7.07;;;;;;;-145.33;100.00;60416.63;4967250;28;20117;-24
2023/08/16 10:07:54;;;;;;;11.57;7.75;;;;;;;-145.33;100.00;60416.63;4967061;28;20469;-23
2023/08/16 10:10:20;;;;;;;12.38;7.40;;;;;;;-145.33;100.00;60416.63;4967051;28;20037;-23
2023/08/16 10:12:46;;;;;;;12.35;7.40;;;;;;;-145.33;100.00;60416.63;4967137;28;20027;-23
2023/08/16 10:15:12;;;;;;;12.05;6.90;;;;;;;-145.33;100.00;60416.63;4967460;28;20027;-23
2023/08/16 10:17:43;;;;;;;14.32;7.65;;;;;;;-145.33;100.00;60416.63;4966985;28;20049;-23
2023/08/16 10:20:26;;;;;;;10.75;7.32;;;;;;;-145.33;100.00;60416.63;4967016;28;20031;-24
2023/08/16 10:22:58;;;;;;;12.68;7.95;;;;;;;-145.33;100.00;60416.63;4967186;28;20027;-23
2023/08/16 10:25:25;;;;;;;10.75;7.32;;;;;;;-145.33;100.00;60416.63;4967073;28;20040;-23
2023/08/16 10:27:58;;;;;;;10.15;7.32;;;;;;;-145.33;100.00;60416.63;4966966;28;20502;-25
2023/08/16 10:30:25;;;;;;;11.52;7.10;;;;;;;-145.33;100.00;60416.63;4966708;28;20527;-24
2023/08/16 10:33:09;;;;;;;11.10;7.03;;;;;;;-145.33;100.00;60416.63;4966846;28;20741;-23
2023/08/16 10:35:41;;;;;;;10.80;7.00;;;;;;;-145.33;100.00;60416.63;4967135;28;20757;-24
2023/08/16 10:38:07;;;;;;;14.88;7.03;;;;;;;-145.33;100.00;60416.63;4966796;28;20038;-23
2023/08/16 10:40:33;;;;;;;11.90;6.53;;;;;;;-145.33;100.00;60416.63;4967059;28;20023;-24
2023/08/16 10:43:06;;;;;;;10.32;6.78;;;;;;;-145.33;100.00;60416.63;4966797;28;20210;-25
2023/08/16 10:45:34;;;;;;;9.38;6.88;;;;;;;-145.33;100.00;60416.63;4966944;28;20066;-24
2023/08/16 10:48:16;;;;;;;12.15;6.85;;;;;;;-145.33;100.00;60416.63;4967375;28;20031;-23
2023/08/16 10:50:42;;;;;;;11.05;6.50;;;;;;;-145.33;100.00;60416.63;4966755;28;20073;-23
2023/08/16 10:53:08;;;;;;;12.55;7.20;;;;;;;-145.33;100.00;60416.63;4966864;28;20026;-23
2023/08/16 10:55:37;;;;;;;9.50;7.70;;;;;;;-145.33;100.00;60416.63;4966651;28;20553;-24